Time;durP1;ratioP1;P1;durP2;ratioP2;P2;SDS_P1;SDS_P2;PMS_P1;PMS_P2;Temp;Humidity;BMP_temperature;BMP_pressure;BME280_temperature;BME280_humidity;BME280_pressure;Samples;Min_cycle;Max_cycle;Signal;HPM_P1;HPM_P2
2023/01/17 00:01:13;;;;;;;4.35;0.80;;;3.20;93.10;;;;;;5037526;28;20037;-86
2023/01/17 00:11:55;;;;;;;3.03;0.85;;;3.50;92.20;;;;;;5054012;28;20048;-85
2023/01/17 00:14:20;;;;;;;1.85;0.60;;;3.60;92.10;;;;;;5037247;28;20128;-85
2023/01/17 00:16:46;;;;;;;4.72;0.70;;;3.60;91.90;;;;;;5037224;28;20128;-83
2023/01/17 01:33:49;;;;;;;6.47;1.27;;;3.60;91.20;;;;;;5038435;28;20469;-80
2023/01/17 01:36:15;;;;;;;7.30;1.48;;;3.60;91.10;;;;;;5035949;28;20393;-81
2023/01/17 01:38:40;;;;;;;7.07;1.33;;;3.60;91.30;;;;;;5052278;28;20041;-86
2023/01/17 01:41:06;;;;;;;7.10;1.38;;;3.50;91.30;;;;;;5035817;28;20041;-83
2023/01/17 01:43:47;;;;;;;6.20;0.75;;;3.50;91.40;;;;;;5035694;28;20044;-83
2023/01/17 01:46:18;;;;;;;3.80;0.75;;;3.60;90.90;;;;;;5052235;28;20041;-85
2023/01/17 01:48:48;;;;;;;3.03;0.80;;;3.60;90.20;;;;;;5035241;28;20052;-81
2023/01/17 01:51:18;;;;;;;3.10;0.55;;;3.50;90.20;;;;;;5035603;28;20037;-83
2023/01/17 01:53:48;;;;;;;5.93;0.65;;;3.40;90.50;;;;;;5034996;28;20501;-86
2023/01/17 01:56:15;;;;;;;6.07;0.73;;;3.40;91.00;;;;;;5051917;28;20036;-87
2023/01/17 01:58:45;;;;;;;4.65;0.73;;;3.10;90.80;;;;;;5051985;28;20048;-81
2023/01/17 02:01:11;;;;;;;6.47;0.65;;;3.10;90.90;;;;;;5035288;28;20555;-84
2023/01/17 02:03:39;;;;;;;1.35;0.77;;;3.10;90.90;;;;;;5019087;28;20041;-83
2023/01/17 02:06:24;;;;;;;2.10;0.60;;;3.10;90.50;;;;;;5050715;28;20569;-84
2023/01/17 02:08:50;;;;;;;2.03;0.35;;;3.10;90.50;;;;;;5035505;28;20366;-83
2023/01/17 02:11:16;;;;;;;2.75;0.55;;;3.10;90.40;;;;;;5019023;28;20045;-84
2023/01/17 02:13:42;;;;;;;3.35;0.75;;;3.10;90.80;;;;;;5035229;28;20040;-85
2023/01/17 02:16:26;;;;;;;3.83;0.80;;;3.00;90.70;;;;;;5035236;28;20063;-85
2023/01/17 02:18:57;;;;;;;3.30;0.60;;;2.80;90.70;;;;;;5035358;28;20041;-88
2023/01/17 02:21:36;;;;;;;5.82;1.05;;;2.70;91.00;;;;;;5051710;28;20492;-84
2023/01/17 02:24:29;;;;;;;5.70;0.82;;;2.60;91.10;;;;;;5035321;28;20037;-83
2023/01/17 02:26:58;;;;;;;3.88;0.77;;;2.60;91.20;;;;;;5035297;28;20132;-82
2023/01/17 02:29:50;;;;;;;6.28;1.00;;;2.60;91.20;;;;;;5051638;28;20497;-83
2023/01/17 02:32:34;;;;;;;3.95;0.90;;;2.60;91.30;;;;;;5035079;28;20124;-85
2023/01/17 02:35:27;;;;;;;5.03;0.80;;;2.70;91.40;;;;;;5051804;28;20037;-86
2023/01/17 02:38:04;;;;;;;6.50;1.15;;;2.70;91.20;;;;;;5068431;28;20045;-83
2023/01/17 02:41:09;;;;;;;4.78;0.93;;;2.60;91.70;;;;;;5051912;28;20099;-80
2023/01/17 02:43:36;;;;;;;11.02;1.15;;;2.60;91.80;;;;;;4997891;28;20512;-83
2023/01/17 02:46:02;;;;;;;11.50;1.65;;;2.80;91.90;;;;;;5043494;28;20045;-83
2023/01/17 02:48:31;;;;;;;7.50;1.40;;;2.70;91.70;;;;;;5050544;28;20568;-82
2023/01/17 02:51:10;;;;;;;9.77;1.52;;;2.80;91.80;;;;;;5035436;28;20049;-82
2023/01/17 02:53:41;;;;;;;5.82;1.40;;;2.80;91.80;;;;;;5034777;28;20047;-85
2023/01/17 02:56:33;;;;;;;2.38;0.70;;;2.80;91.90;;;;;;5034981;28;20041;-84
2023/01/17 02:59:20;;;;;;;5.13;1.08;;;2.90;91.60;;;;;;5051305;28;20045;-88
2023/01/17 03:02:15;;;;;;;3.05;0.82;;;3.00;90.90;;;;;;5051354;28;20481;-83
2023/01/17 03:05:05;;;;;;;5.10;1.10;;;3.00;89.90;;;;;;5051480;28;20132;-83
2023/01/17 03:07:31;;;;;;;5.30;1.17;;;3.10;88.90;;;;;;5038349;28;20110;-82
2023/01/17 03:10:02;;;;;;;3.78;0.90;;;3.20;88.50;;;;;;5038358;28;20041;-85
2023/01/17 03:12:29;;;;;;;6.57;1.10;;;3.20;88.50;;;;;;5038431;28;20049;-85
2023/01/17 03:14:55;;;;;;;7.43;1.15;;;3.20;88.60;;;;;;5055085;28;20044;-84
2023/01/17 03:17:27;;;;;;;4.95;1.05;;;3.20;88.40;;;;;;5038666;28;20374;-84
2023/01/17 03:19:52;;;;;;;8.45;1.73;;;3.30;88.40;;;;;;5037322;28;20029;-84
2023/01/17 03:22:18;;;;;;;9.43;1.42;;;3.20;88.60;;;;;;5021597;28;20068;-86
2023/01/17 03:24:44;;;;;;;6.55;0.98;;;3.20;88.80;;;;;;5038384;28;20068;-83
2023/01/17 03:27:10;;;;;;;5.38;0.93;;;3.30;88.80;;;;;;5038084;28;20037;-84
2023/01/17 03:29:35;;;;;;;4.93;0.77;;;3.40;88.10;;;;;;5054635;28;20147;-86
2023/01/17 03:32:01;;;;;;;5.93;1.30;;;3.50;87.30;;;;;;5021817;28;20037;-82
2023/01/17 03:34:26;;;;;;;7.60;1.02;;;3.60;87.10;;;;;;5038068;28;20135;-88
2023/01/17 03:36:52;;;;;;;6.22;0.88;;;3.40;87.10;;;;;;5037105;28;20033;-83
2023/01/17 03:39:18;;;;;;;5.57;0.90;;;3.30;86.50;;;;;;5037914;28;20408;-86
2023/01/17 03:41:43;;;;;;;4.78;1.35;;;3.30;85.40;;;;;;5021417;28;20051;-86
2023/01/17 03:44:09;;;;;;;2.88;0.82;;;3.20;84.80;;;;;;5037887;28;20040;-82
2023/01/17 03:46:35;;;;;;;5.05;0.60;;;3.30;84.30;;;;;;5037948;28;20032;-85
2023/01/17 03:49:01;;;;;;;3.50;0.73;;;3.20;83.90;;;;;;5037721;28;20087;-85
2023/01/17 03:51:27;;;;;;;3.90;0.85;;;3.30;83.00;;;;;;5038061;28;20052;-85
2023/01/17 03:53:52;;;;;;;2.05;0.70;;;3.30;82.00;;;;;;5037680;28;20041;-85
2023/01/17 03:56:18;;;;;;;5.50;1.00;;;3.30;82.40;;;;;;5036641;28;20045;-83
2023/01/17 03:58:44;;;;;;;4.50;0.80;;;3.30;83.00;;;;;;5054274;28;20045;-86
2023/01/17 04:01:10;;;;;;;1.80;0.43;;;3.30;83.50;;;;;;5037793;28;20037;-87
2023/01/17 04:03:36;;;;;;;2.33;0.70;;;3.30;84.20;;;;;;5037523;28;20043;-88
2023/01/17 04:06:02;;;;;;;2.83;0.43;;;3.30;85.60;;;;;;5037554;28;20045;-84
2023/01/17 04:08:29;;;;;;;4.10;0.70;;;3.30;86.50;;;;;;5037396;28;20044;-86
2023/01/17 04:10:55;;;;;;;1.98;0.60;;;3.00;86.10;;;;;;5021299;28;20037;-81
2023/01/17 04:13:21;;;;;;;1.50;0.98;;;2.80;86.90;;;;;;5053729;28;20091;-85
2023/01/17 04:15:49;;;;;;;3.35;0.77;;;2.60;87.10;;;;;;5037185;28;20037;-83
2023/01/17 04:18:19;;;;;;;1.27;0.60;;;2.50;87.70;;;;;;5053458;28;20080;-84
2023/01/17 04:20:46;;;;;;;4.65;1.10;;;2.40;87.90;;;;;;5037165;28;20060;-86
2023/01/17 04:23:12;;;;;;;5.25;0.80;;;2.30;88.40;;;;;;5053453;28;20482;-84
2023/01/17 04:25:38;;;;;;;5.28;0.88;;;2.40;88.50;;;;;;5035956;28;20490;-86
2023/01/17 04:28:04;;;;;;;5.80;0.77;;;2.40;88.50;;;;;;5037160;28;20041;-79
2023/01/17 04:30:30;;;;;;;5.85;0.80;;;2.50;88.50;;;;;;5053553;28;20037;-84
2023/01/17 04:32:57;;;;;;;7.00;1.88;;;2.40;88.70;;;;;;5036749;28;20045;-82
2023/01/17 04:35:23;;;;;;;4.93;0.80;;;2.40;89.10;;;;;;5020386;28;20140;-83
2023/01/17 04:37:49;;;;;;;7.93;2.05;;;2.30;89.20;;;;;;5037067;28;20397;-81
2023/01/17 04:40:16;;;;;;;5.57;0.73;;;2.20;89.50;;;;;;5036554;28;20044;-85
2023/01/17 04:42:44;;;;;;;5.93;1.33;;;2.20;89.40;;;;;;5068959;28;20040;-87
2023/01/17 04:45:11;;;;;;;3.13;0.90;;;2.10;89.80;;;;;;5036505;28;20047;-85
2023/01/17 04:47:36;;;;;;;5.53;0.80;;;2.20;90.00;;;;;;5036592;28;20146;-84
2023/01/17 04:50:02;;;;;;;3.45;0.77;;;2.10;89.60;;;;;;5036475;28;20037;-84
2023/01/17 04:52:28;;;;;;;5.07;1.33;;;2.20;89.80;;;;;;5036357;28;20056;-82
2023/01/17 04:54:54;;;;;;;3.58;0.85;;;2.10;89.70;;;;;;5069541;28;20436;-85
2023/01/17 04:57:19;;;;;;;7.90;0.93;;;2.10;89.10;;;;;;5036304;28;20095;-81
2023/01/17 04:59:46;;;;;;;4.38;0.77;;;2.10;89.50;;;;;;5051582;28;20120;-81
2023/01/17 05:02:12;;;;;;;5.25;1.38;;;2.10;89.00;;;;;;5036388;28;20036;-85
2023/01/17 05:04:39;;;;;;;3.15;1.00;;;2.10;88.60;;;;;;5036170;28;20052;-83
2023/01/17 05:07:05;;;;;;;5.43;1.10;;;2.20;88.40;;;;;;5035939;28;20057;-83
2023/01/17 05:09:31;;;;;;;5.63;1.48;;;2.20;87.90;;;;;;5036088;28;20045;-81
2023/01/17 05:11:57;;;;;;;3.50;0.70;;;2.30;87.20;;;;;;5019588;28;20052;-81
2023/01/17 05:14:25;;;;;;;2.97;0.70;;;2.30;86.10;;;;;;5052536;28;20036;-82
2023/01/17 05:16:57;;;;;;;5.43;1.67;;;2.30;86.00;;;;;;5018804;28;20040;-84
2023/01/17 05:19:24;;;;;;;1.83;0.50;;;2.40;85.70;;;;;;5035851;28;20076;-85
2023/01/17 05:21:50;;;;;;;5.80;0.80;;;2.30;85.20;;;;;;5035834;28;20040;-83
2023/01/17 05:24:16;;;;;;;4.85;0.70;;;2.30;84.80;;;;;;5052642;28;20037;-84
2023/01/17 05:26:42;;;;;;;1.25;0.50;;;2.30;83.60;;;;;;5035855;28;20481;-83
2023/01/17 05:29:08;;;;;;;3.92;0.60;;;2.30;83.90;;;;;;5051380;28;20124;-84
2023/01/17 05:31:34;;;;;;;4.50;0.63;;;2.40;83.80;;;;;;5019322;28;20497;-81
2023/01/17 05:34:00;;;;;;;1.80;0.40;;;2.30;84.00;;;;;;5035017;28;20123;-84
2023/01/17 05:36:25;;;;;;;4.10;0.70;;;2.40;83.40;;;;;;5035748;28;20136;-83
2023/01/17 05:38:51;;;;;;;3.60;0.68;;;2.50;83.00;;;;;;5035685;28;20080;-85
2023/01/17 05:41:17;;;;;;;2.00;0.40;;;2.50;83.00;;;;;;5052039;28;20059;-83
2023/01/17 05:43:43;;;;;;;5.82;0.60;;;2.40;83.40;;;;;;5035314;28;20036;-85
2023/01/17 05:46:08;;;;;;;3.20;0.40;;;2.40;83.30;;;;;;5035581;28;20037;-86
2023/01/17 05:48:34;;;;;;;3.42;0.90;;;2.40;84.00;;;;;;5035608;28;20179;-80
2023/01/17 05:51:00;;;;;;;3.17;0.90;;;2.40;84.30;;;;;;5050856;28;20041;-84
2023/01/17 05:53:26;;;;;;;3.25;0.77;;;2.30;84.60;;;;;;5035681;28;20045;-82
2023/01/17 05:55:52;;;;;;;3.78;0.75;;;2.40;84.70;;;;;;5036180;28;20401;-81
2023/01/17 05:58:20;;;;;;;3.30;0.80;;;2.30;84.90;;;;;;5036630;28;20429;-83
2023/01/17 06:00:46;;;;;;;2.45;0.70;;;2.20;85.10;;;;;;5037242;28;20047;-83
2023/01/17 06:03:12;;;;;;;4.25;0.82;;;2.20;85.40;;;;;;5019083;28;20037;-82
2023/01/17 06:05:38;;;;;;;4.07;0.60;;;2.20;85.80;;;;;;5034087;28;20059;-82
2023/01/17 06:08:04;;;;;;;2.22;0.68;;;2.20;85.90;;;;;;5051855;28;20041;-83
2023/01/17 06:10:30;;;;;;;3.22;1.23;;;2.20;85.80;;;;;;5035365;28;20362;-83
2023/01/17 06:13:01;;;;;;;1.83;0.60;;;2.30;85.90;;;;;;5051549;28;20481;-83
2023/01/17 06:15:26;;;;;;;6.25;0.88;;;2.20;86.10;;;;;;5035286;28;20386;-83
2023/01/17 06:17:52;;;;;;;4.97;0.80;;;2.30;85.90;;;;;;5035098;28;20048;-80
2023/01/17 06:20:18;;;;;;;3.08;0.60;;;2.20;86.00;;;;;;5068452;28;20087;-81
2023/01/17 06:22:44;;;;;;;6.35;0.80;;;2.20;86.10;;;;;;5033998;28;20060;-83
2023/01/17 06:25:09;;;;;;;6.25;0.98;;;2.10;86.40;;;;;;5051448;28;20159;-81
2023/01/17 06:27:35;;;;;;;3.60;0.90;;;2.10;86.40;;;;;;5034914;28;20037;-82
2023/01/17 06:30:01;;;;;;;5.97;1.25;;;1.90;86.60;;;;;;5034853;28;20131;-82
2023/01/17 06:32:26;;;;;;;6.20;0.90;;;1.90;87.10;;;;;;5034854;28;20048;-81
2023/01/17 06:34:52;;;;;;;3.80;0.80;;;1.80;87.10;;;;;;5035087;28;20040;-81
2023/01/17 06:37:18;;;;;;;5.32;1.45;;;1.80;87.10;;;;;;5034811;28;20481;-82
2023/01/17 06:39:44;;;;;;;3.60;0.70;;;1.70;87.10;;;;;;5051545;28;20040;-83
2023/01/17 06:42:09;;;;;;;3.42;0.88;;;1.70;87.50;;;;;;5038686;28;20481;-81
2023/01/17 06:44:35;;;;;;;7.90;1.27;;;1.80;87.30;;;;;;5038941;28;20116;-82
2023/01/17 06:47:01;;;;;;;4.43;0.70;;;1.80;87.60;;;;;;5022417;28;20036;-81
2023/01/17 06:49:26;;;;;;;4.40;1.00;;;1.90;87.60;;;;;;5055416;28;20492;-84
2023/01/17 06:51:52;;;;;;;2.88;0.68;;;1.90;87.60;;;;;;5022106;28;20530;-84
2023/01/17 06:54:18;;;;;;;2.15;0.68;;;1.90;87.40;;;;;;5022084;28;20099;-85
2023/01/17 06:56:44;;;;;;;3.38;0.40;;;2.00;86.90;;;;;;5038647;28;20045;-84
2023/01/17 06:59:09;;;;;;;3.00;0.73;;;2.10;86.10;;;;;;5022204;28;20192;-84
2023/01/17 07:01:35;;;;;;;19.70;2.10;;;2.20;85.60;;;;;;5021979;28;20040;-85
2023/01/17 07:04:02;;;;;;;4.32;0.93;;;2.20;85.50;;;;;;5055489;28;20041;-84
2023/01/17 07:06:27;;;;;;;4.72;0.73;;;2.20;85.30;;;;;;5054710;28;20120;-83
2023/01/17 07:08:55;;;;;;;5.90;1.38;;;2.20;85.60;;;;;;5021864;28;20079;-84
2023/01/17 07:11:21;;;;;;;6.65;0.73;;;2.30;85.40;;;;;;5055127;28;20552;-85
2023/01/17 07:13:47;;;;;;;4.43;1.00;;;2.40;85.70;;;;;;5055041;28;20044;-86
2023/01/17 07:16:12;;;;;;;3.85;0.70;;;2.30;86.00;;;;;;5021633;28;20094;-85
2023/01/17 07:18:38;;;;;;;5.05;1.25;;;2.30;86.40;;;;;;5038035;28;20044;-85
2023/01/17 07:21:04;;;;;;;6.60;0.77;;;2.30;86.50;;;;;;5021749;28;20044;-86
2023/01/17 07:23:29;;;;;;;6.47;2.17;;;2.20;86.80;;;;;;5019035;28;20040;-85
2023/01/17 07:25:57;;;;;;;6.40;0.77;;;2.20;87.10;;;;;;5028990;28;20118;-83
2023/01/17 07:28:24;;;;;;;2.92;0.75;;;2.20;87.20;;;;;;5039269;28;20029;-85
2023/01/17 07:30:50;;;;;;;5.47;1.00;;;2.20;87.10;;;;;;5034906;28;20476;-84
2023/01/17 07:33:16;;;;;;;6.72;1.60;;;2.20;87.30;;;;;;5012254;28;20045;-85
2023/01/17 07:35:42;;;;;;;11.30;4.65;;;2.10;87.40;;;;;;5034209;28;20090;-85
2023/01/17 07:38:14;;;;;;;5.43;2.13;;;2.10;87.60;;;;;;5051081;28;20390;-84
2023/01/17 07:40:40;;;;;;;4.88;1.30;;;2.10;87.80;;;;;;5034436;28;20049;-85
2023/01/17 07:43:12;;;;;;;6.43;1.10;;;2.10;87.90;;;;;;5017826;28;20403;-84
2023/01/17 07:45:49;;;;;;;7.85;1.00;;;2.00;88.10;;;;;;5018872;28;20044;-83
2023/01/17 07:48:17;;;;;;;8.25;1.42;;;1.90;88.10;;;;;;5033790;28;20040;-80
2023/01/17 07:50:42;;;;;;;5.68;1.55;;;1.80;88.30;;;;;;5032443;28;20041;-80
2023/01/17 07:53:09;;;;;;;5.93;1.30;;;1.80;88.40;;;;;;5048929;28;20474;-83
2023/01/17 07:55:35;;;;;;;6.60;2.10;;;1.70;88.40;;;;;;5034078;28;20049;-83
2023/01/17 07:58:00;;;;;;;8.38;2.67;;;1.70;88.50;;;;;;5034011;28;20123;-81
2023/01/17 08:00:27;;;;;;;5.68;1.60;;;1.60;88.60;;;;;;5055938;28;20032;-81
2023/01/17 08:02:57;;;;;;;6.20;2.03;;;1.60;88.60;;;;;;5044768;28;20033;-83
2023/01/17 08:05:24;;;;;;;8.63;3.40;;;1.50;88.90;;;;;;5016889;28;20061;-83
2023/01/17 08:07:49;;;;;;;7.00;3.17;;;1.50;88.90;;;;;;5036484;28;20095;-82
2023/01/17 08:10:17;;;;;;;7.03;2.78;;;1.40;89.10;;;;;;5017398;28;20053;-81
2023/01/17 08:12:45;;;;;;;5.30;1.20;;;1.30;89.10;;;;;;5017627;28;20042;-79
2023/01/17 08:15:11;;;;;;;4.22;0.80;;;1.30;89.10;;;;;;5033929;28;20103;-80
2023/01/17 08:17:38;;;;;;;8.32;1.65;;;1.20;89.10;;;;;;5034009;28;20476;-80
2023/01/17 08:20:05;;;;;;;3.88;0.88;;;1.10;89.20;;;;;;5033239;28;20380;-80
2023/01/17 08:22:31;;;;;;;3.28;1.17;;;1.10;89.30;;;;;;5032061;28;20084;-80
2023/01/17 08:24:56;;;;;;;5.45;1.30;;;1.10;89.30;;;;;;5033063;28;20091;-80
2023/01/17 08:27:22;;;;;;;7.22;1.48;;;1.10;89.40;;;;;;5032425;28;20402;-81
2023/01/17 08:29:48;;;;;;;5.18;0.90;;;1.10;89.40;;;;;;5032889;28;20081;-81
2023/01/17 08:32:14;;;;;;;5.63;1.40;;;1.10;89.50;;;;;;5016028;28;20103;-80
2023/01/17 08:34:41;;;;;;;4.85;1.85;;;1.10;89.50;;;;;;5032810;28;20053;-80
2023/01/17 08:37:06;;;;;;;9.05;1.88;;;1.10;89.50;;;;;;5016956;28;20053;-80
2023/01/17 08:39:32;;;;;;;2.47;1.00;;;1.10;89.60;;;;;;5016637;28;20493;-80
2023/01/17 08:41:58;;;;;;;6.03;2.25;;;1.20;89.80;;;;;;5016649;28;20041;-80
2023/01/17 08:44:24;;;;;;;5.63;1.00;;;1.10;89.60;;;;;;5016915;28;20044;-81
2023/01/17 08:46:49;;;;;;;6.20;1.20;;;1.20;89.60;;;;;;5033092;28;20037;-80
2023/01/17 08:49:15;;;;;;;2.70;0.93;;;1.10;89.70;;;;;;5033335;28;20106;-81
2023/01/17 08:51:41;;;;;;;4.13;0.90;;;1.20;89.70;;;;;;5033001;28;20548;-81
2023/01/17 08:54:08;;;;;;;10.18;1.08;;;1.20;89.70;;;;;;5016506;28;20046;-80
2023/01/17 08:56:34;;;;;;;4.63;1.00;;;1.30;89.80;;;;;;5016388;28;20049;-80
2023/01/17 08:59:01;;;;;;;6.80;2.08;;;1.30;89.60;;;;;;5032732;28;20045;-80
2023/01/17 09:01:27;;;;;;;5.68;1.27;;;1.30;89.60;;;;;;5016614;28;20041;-80
2023/01/17 09:03:53;;;;;;;5.97;1.23;;;1.40;89.60;;;;;;5032516;28;20077;-80
2023/01/17 09:06:19;;;;;;;1.80;0.90;;;1.60;89.40;;;;;;5032470;28;20050;-81
2023/01/17 09:08:45;;;;;;;5.40;1.05;;;1.60;89.40;;;;;;5032881;28;20057;-81
2023/01/17 09:11:13;;;;;;;8.07;1.02;;;1.70;89.40;;;;;;5032536;28;20400;-80
2023/01/17 09:13:40;;;;;;;7.40;1.00;;;1.70;89.40;;;;;;5016511;28;20385;-81
2023/01/17 09:16:06;;;;;;;5.22;0.90;;;1.80;89.50;;;;;;5032472;28;20091;-81
2023/01/17 09:18:33;;;;;;;7.30;1.15;;;1.80;89.50;;;;;;5032573;28;20056;-81
2023/01/17 09:21:08;;;;;;;4.82;0.85;;;1.80;89.50;;;;;;5032903;28;20386;-81
2023/01/17 09:23:33;;;;;;;6.18;1.27;;;1.90;89.60;;;;;;5032428;28;20482;-80
2023/01/17 09:25:59;;;;;;;5.45;1.38;;;1.90;89.70;;;;;;5032375;28;20040;-82
2023/01/17 09:28:26;;;;;;;4.78;1.20;;;2.00;89.80;;;;;;5032657;28;20087;-80
2023/01/17 09:30:52;;;;;;;5.80;0.95;;;2.10;90.10;;;;;;5032762;28;20104;-82
2023/01/17 09:33:19;;;;;;;5.72;1.15;;;2.10;90.00;;;;;;5032513;28;20124;-79
2023/01/17 09:35:45;;;;;;;4.68;1.50;;;2.10;90.00;;;;;;5032220;28;20171;-80
2023/01/17 09:38:12;;;;;;;3.97;1.15;;;2.10;90.00;;;;;;5032208;28;20123;-81
2023/01/17 09:40:45;;;;;;;5.50;1.92;;;2.20;89.90;;;;;;5032027;28;20402;-79
2023/01/17 09:43:43;;;;;;;9.35;1.70;;;2.20;89.80;;;;;;5032649;28;20128;-79
2023/01/17 09:46:21;;;;;;;8.00;2.60;;;2.20;89.80;;;;;;5032002;28;20120;-79
2023/01/17 09:49:03;;;;;;;3.65;1.42;;;2.30;89.80;;;;;;5032113;28;20055;-81
2023/01/17 09:51:29;;;;;;;5.50;1.55;;;2.40;89.80;;;;;;5032300;28;20385;-81
2023/01/17 09:53:55;;;;;;;5.80;1.60;;;2.40;89.60;;;;;;5032073;28;20037;-79
2023/01/17 09:56:30;;;;;;;4.82;1.27;;;2.50;89.70;;;;;;5015199;28;20548;-82
2023/01/17 09:59:20;;;;;;;6.80;1.40;;;2.60;89.60;;;;;;5049280;28;20655;-81
2023/01/17 10:01:52;;;;;;;3.80;1.33;;;2.60;89.60;;;;;;5030193;28;20037;-81
2023/01/17 10:04:47;;;;;;;5.28;2.03;;;2.70;89.40;;;;;;5046934;28;20037;-82
2023/01/17 10:07:25;;;;;;;3.22;1.10;;;2.80;89.40;;;;;;5031678;28;20123;-80
2023/01/17 10:10:19;;;;;;;4.15;1.00;;;2.90;89.40;;;;;;5033227;28;20052;-80
2023/01/17 10:13:38;;;;;;;4.93;1.65;;;3.00;89.50;;;;;;5049161;28;20045;-81
2023/01/17 10:16:28;;;;;;;10.05;1.83;;;3.10;89.30;;;;;;4971885;28;20085;-81
2023/01/17 10:18:57;;;;;;;4.45;1.00;;;3.20;89.20;;;;;;5049277;28;20064;-80
2023/01/17 10:21:50;;;;;;;4.28;1.08;;;3.20;89.10;;;;;;5048911;28;20330;-80
2023/01/17 10:24:34;;;;;;;2.90;1.08;;;3.10;88.80;;;;;;5033158;28;20044;-82
2023/01/17 10:27:02;;;;;;;6.75;0.70;;;3.20;88.90;;;;;;5048591;28;20044;-81
2023/01/17 10:29:33;;;;;;;5.78;0.95;;;3.30;88.90;;;;;;5049292;28;20056;-81
2023/01/17 10:32:01;;;;;;;4.10;0.82;;;3.40;88.90;;;;;;5032982;28;20077;-81
2023/01/17 10:34:39;;;;;;;3.05;0.77;;;3.40;88.60;;;;;;5033265;28;20068;-80
2023/01/17 10:37:22;;;;;;;5.88;1.30;;;3.50;88.50;;;;;;5047218;28;20084;-80
2023/01/17 10:39:49;;;;;;;6.35;1.23;;;3.60;88.10;;;;;;5049544;28;20047;-80
2023/01/17 10:42:35;;;;;;;7.55;2.80;;;3.70;87.80;;;;;;5049002;28;20562;-79
2023/01/17 10:45:12;;;;;;;4.43;1.70;;;3.90;87.20;;;;;;5046567;28;20037;-81
2023/01/17 10:47:39;;;;;;;4.85;0.95;;;4.10;86.20;;;;;;5046597;28;20049;-81
2023/01/17 10:50:10;;;;;;;5.13;1.05;;;4.10;84.60;;;;;;5049584;28;20072;-81
2023/01/17 10:52:42;;;;;;;3.63;0.82;;;4.20;84.30;;;;;;5049724;28;20080;-80
2023/01/17 10:55:38;;;;;;;3.92;0.90;;;4.30;83.30;;;;;;5045442;28;20047;-79
2023/01/17 10:58:07;;;;;;;3.15;0.82;;;4.30;82.30;;;;;;5048700;28;20044;-81
2023/01/17 11:00:53;;;;;;;2.83;0.77;;;4.50;81.00;;;;;;5032739;28;20397;-79
2023/01/17 11:03:19;;;;;;;2.80;0.70;;;4.40;80.60;;;;;;5033189;28;20033;-79
2023/01/17 11:06:14;;;;;;;2.83;0.50;;;4.40;79.50;;;;;;5016049;28;20450;-81
2023/01/17 11:08:55;;;;;;;2.10;0.70;;;4.40;79.90;;;;;;5046452;28;20075;-79
2023/01/17 11:11:29;;;;;;;3.25;0.85;;;4.50;79.80;;;;;;5032370;28;20048;-79
2023/01/17 11:13:56;;;;;;;;;;;4.60;79.40;;;;;;5049298;28;20041;-79
2023/01/17 11:16:30;;;;;;;2.80;0.82;;;4.70;79.40;;;;;;5032394;28;19958;-80
2023/01/17 11:19:22;;;;;;;3.17;0.63;;;4.80;78.90;;;;;;5031843;28;20106;-79
2023/01/17 11:21:52;;;;;;;4.15;0.77;;;5.00;77.00;;;;;;5048810;28;20550;-79
2023/01/17 11:24:27;;;;;;;4.88;0.80;;;5.00;77.00;;;;;;5049980;28;20045;-80
2023/01/17 11:26:53;;;;;;;3.75;0.98;;;5.10;77.00;;;;;;5052037;28;20051;-81
2023/01/17 11:29:31;;;;;;;5.35;1.05;;;5.20;76.60;;;;;;5038168;28;20045;-78
2023/01/17 11:32:35;;;;;;;3.25;0.57;;;5.30;76.00;;;;;;5054431;28;20052;-79
2023/01/17 11:35:28;;;;;;;4.10;0.80;;;5.40;76.00;;;;;;5011019;28;20048;-80
2023/01/17 11:38:03;;;;;;;4.05;0.75;;;5.40;75.20;;;;;;5017904;28;20073;-81
2023/01/17 11:40:46;;;;;;;1.75;0.57;;;5.50;74.90;;;;;;5054251;28;20115;-80
2023/01/17 11:43:21;;;;;;;3.72;0.70;;;5.60;75.10;;;;;;5054286;28;20044;-79
2023/01/17 11:46:05;;;;;;;3.25;0.95;;;5.60;74.20;;;;;;5037569;28;20033;-80
2023/01/17 11:48:36;;;;;;;3.97;1.17;;;5.70;74.80;;;;;;5054480;28;20048;-80
2023/01/17 11:51:09;;;;;;;4.57;0.90;;;5.80;74.90;;;;;;5054088;28;20124;-79
2023/01/17 11:53:42;;;;;;;5.70;1.10;;;5.80;74.30;;;;;;5038353;28;20048;-78
2023/01/17 11:56:21;;;;;;;2.75;0.80;;;5.90;73.60;;;;;;5036999;28;20045;-81
2023/01/17 11:58:48;;;;;;;3.05;0.68;;;6.00;73.40;;;;;;5027222;28;20069;-79
2023/01/17 12:01:45;;;;;;;2.40;0.60;;;6.10;72.70;;;;;;5043142;28;20033;-79
2023/01/17 12:04:43;;;;;;;2.38;0.70;;;6.10;70.60;;;;;;5034178;28;20033;-80
2023/01/17 12:07:30;;;;;;;4.90;0.65;;;6.10;70.70;;;;;;5017036;28;20061;-80
2023/01/17 12:10:25;;;;;;;2.33;0.70;;;6.10;71.30;;;;;;5033826;28;20504;-80
2023/01/17 12:14:09;;;;;;;3.83;0.90;;;6.10;71.10;;;;;;5033655;28;20072;-81
2023/01/17 12:19:01;;;;;;;5.53;0.73;;;6.20;71.40;;;;;;5050582;28;20072;-81
2023/01/17 12:22:06;;;;;;;3.40;0.63;;;6.20;69.30;;;;;;5017254;28;20073;-79
2023/01/17 12:24:47;;;;;;;4.68;0.80;;;6.30;69.80;;;;;;5017148;28;20048;-81
2023/01/17 12:27:34;;;;;;;1.70;0.55;;;6.30;69.70;;;;;;5033447;28;20046;-81
2023/01/17 12:30:19;;;;;;;3.45;1.27;;;6.30;69.20;;;;;;5033764;28;20129;-80
2023/01/17 12:33:09;;;;;;;5.45;0.90;;;6.30;69.30;;;;;;5033457;28;20042;-80
2023/01/17 12:35:44;;;;;;;4.07;0.65;;;6.30;68.80;;;;;;5033578;28;20592;-80
2023/01/17 12:38:17;;;;;;;3.90;0.90;;;6.40;68.70;;;;;;5016298;28;20042;-80
2023/01/17 12:40:48;;;;;;;3.47;0.70;;;6.40;69.30;;;;;;5016672;28;20382;-79
2023/01/17 12:43:31;;;;;;;4.95;0.70;;;6.50;69.20;;;;;;5016664;28;20052;-79
2023/01/17 12:46:00;;;;;;;3.05;0.60;;;6.50;67.50;;;;;;5016628;28;20041;-79
2023/01/17 12:48:33;;;;;;;5.30;1.27;;;6.50;67.80;;;;;;5016620;28;20044;-80
2023/01/17 12:51:01;;;;;;;7.47;0.70;;;6.50;68.30;;;;;;5032998;28;20053;-80
2023/01/17 12:53:33;;;;;;;3.20;0.60;;;6.60;68.60;;;;;;5033021;28;20087;-80
2023/01/17 12:56:08;;;;;;;2.53;0.85;;;6.70;67.80;;;;;;5016378;28;20485;-80
2023/01/17 12:58:41;;;;;;;6.82;0.95;;;6.80;67.00;;;;;;5033134;28;20091;-80
2023/01/17 13:01:41;;;;;;;2.72;0.80;;;7.00;67.50;;;;;;5032867;28;20265;-81
2023/01/17 13:04:24;;;;;;;1.85;0.82;;;7.00;66.60;;;;;;5027780;28;20045;-79
2023/01/17 13:06:59;;;;;;;2.05;0.80;;;7.00;66.60;;;;;;5032744;28;20515;-80
2023/01/17 13:09:30;;;;;;;1.88;0.60;;;7.10;67.80;;;;;;5032651;28;20156;-81
2023/01/17 13:12:11;;;;;;;2.47;0.60;;;7.10;67.40;;;;;;5032574;28;20049;-80
2023/01/17 13:14:36;;;;;;;4.38;0.65;;;7.00;66.50;;;;;;5032548;28;20077;-80
2023/01/17 13:17:19;;;;;;;2.55;0.70;;;6.80;67.10;;;;;;5016031;28;20073;-79
2023/01/17 13:19:59;;;;;;;3.63;0.75;;;6.50;67.20;;;;;;5032502;28;20099;-77
2023/01/17 13:22:26;;;;;;;4.50;0.70;;;6.40;68.20;;;;;;5032362;28;20554;-79
2023/01/17 13:25:05;;;;;;;2.05;0.70;;;6.50;67.70;;;;;;5016090;28;20076;-80
2023/01/17 13:28:16;;;;;;;4.80;0.70;;;6.30;68.10;;;;;;5032324;28;20041;-79
2023/01/17 13:30:42;;;;;;;3.10;0.63;;;6.30;67.50;;;;;;5030078;28;20047;-78
2023/01/17 13:33:22;;;;;;;2.25;0.70;;;6.30;66.90;;;;;;5016394;28;20071;-79
2023/01/17 13:36:12;;;;;;;3.20;0.60;;;6.50;67.00;;;;;;5032156;28;20099;-80
2023/01/17 13:39:06;;;;;;;1.88;0.50;;;6.50;66.80;;;;;;5032075;28;20047;-78
2023/01/17 13:41:44;;;;;;;1.77;0.57;;;6.50;66.70;;;;;;5015701;28;20033;-79
2023/01/17 13:44:21;;;;;;;3.80;0.80;;;6.60;66.00;;;;;;5015629;28;20486;-79
2023/01/17 13:47:17;;;;;;;5.38;1.58;;;6.70;65.90;;;;;;5017170;28;20073;-80
2023/01/17 13:49:49;;;;;;;4.50;0.75;;;7.00;65.50;;;;;;5031497;28;20045;-80
2023/01/17 13:52:18;;;;;;;1.65;0.95;;;7.00;64.50;;;;;;5031935;28;20052;-80
2023/01/17 13:54:51;;;;;;;3.20;1.05;;;6.80;64.80;;;;;;5031925;28;20041;-80
2023/01/17 13:57:28;;;;;;;3.13;0.77;;;6.60;64.90;;;;;;5015694;28;20046;-77
2023/01/17 13:59:55;;;;;;;3.00;0.73;;;6.20;64.90;;;;;;5031927;28;20068;-79
2023/01/17 14:02:37;;;;;;;5.03;0.90;;;6.20;65.20;;;;;;5015615;28;20048;-79
2023/01/17 14:05:16;;;;;;;1.35;0.57;;;6.30;66.60;;;;;;5015668;28;20064;-79
2023/01/17 14:07:48;;;;;;;3.83;0.85;;;6.30;66.80;;;;;;5031838;28;20513;-79
2023/01/17 14:10:36;;;;;;;1.65;0.60;;;6.30;67.60;;;;;;5015308;28;20045;-80
2023/01/17 14:13:05;;;;;;;3.60;0.77;;;6.40;66.60;;;;;;5031714;28;20045;-79
2023/01/17 14:15:34;;;;;;;2.80;0.68;;;6.40;66.80;;;;;;5032046;28;20037;-79
2023/01/17 14:18:01;;;;;;;2.47;0.50;;;6.40;66.40;;;;;;5031607;28;20049;-79
2023/01/17 14:20:38;;;;;;;2.63;0.70;;;6.10;66.00;;;;;;5048199;28;20045;-79
2023/01/17 14:23:25;;;;;;;2.42;0.75;;;5.90;66.50;;;;;;5031646;28;20050;-79
2023/01/17 14:26:01;;;;;;;3.80;1.88;;;5.70;67.70;;;;;;5031582;28;20048;-79
2023/01/17 14:28:31;;;;;;;1.05;0.50;;;5.80;68.00;;;;;;5031903;28;20482;-80
2023/01/17 14:30:58;;;;;;;2.70;0.70;;;5.80;68.50;;;;;;5014875;28;20045;-81
2023/01/17 14:33:28;;;;;;;2.53;0.70;;;5.90;68.80;;;;;;5031498;28;20120;-78
2023/01/17 14:36:02;;;;;;;2.45;0.65;;;6.10;69.20;;;;;;5031705;28;20060;-79
2023/01/17 14:38:30;;;;;;;1.88;0.57;;;6.30;69.00;;;;;;5015315;28;20132;-80
2023/01/17 14:41:03;;;;;;;5.38;1.45;;;6.50;68.60;;;;;;5014941;28;20034;-78
2023/01/17 14:43:32;;;;;;;13.27;7.43;;;6.60;68.40;;;;;;5031374;28;20048;-78
2023/01/17 14:46:03;;;;;;;1.30;0.90;;;6.80;68.20;;;;;;5031644;28;20187;-79
2023/01/17 14:48:29;;;;;;;2.88;0.80;;;6.70;67.60;;;;;;5031646;28;20064;-79